Abernathy, Texas
Current Conditions -  °F | °C
As of 9:53 PM on Saturday 22 Nov 2014 (Local Time) from KLBB Reporting Station
Haze Haze  
Wind Chill:   Ceiling: Unl
Heat Index:   Visibility: 6mi
Dew Point:   Wind: 8mph
Humidity: 93%   Direction: 190°S
Pressure: 29.74"   Gusts: NA
Location:  33.83°N, 101.84°W
Report Text: KLBB 230353Z 19007KT 6SM BR CLR 09/08 A2974 RMK AO2 SLP052 T00890078
Loading
Personal Weather Stations






























Interactive Weather Map New forecast layout! Learn more

10-Day Weather Forecast

Advertisements
Track Severe Weather on mobile